sensor_id;sensor_type;location;lat;lon;timestamp;pressure;altitude;pressure_sealevel;temperature;humidity
47592;BME280;33317;33.356;-117.184;2024-03-06T00:00:38;99243.84;;;30.12;26.18
47592;BME280;33317;33.356;-117.184;2024-03-06T00:03:06;99246.09;;;29.62;26.29
47592;BME280;33317;33.356;-117.184;2024-03-06T00:05:35;99252.11;;;30.07;26.30
47592;BME280;33317;33.356;-117.184;2024-03-06T00:08:03;99254.14;;;29.82;26.35
47592;BME280;33317;33.356;-117.184;2024-03-06T00:10:32;99258.56;;;29.61;26.39
47592;BME280;33317;33.356;-117.184;2024-03-06T00:13:00;99261.74;;;29.79;26.52
47592;BME280;33317;33.356;-117.184;2024-03-06T00:15:28;99260.92;;;29.75;26.58
47592;BME280;33317;33.356;-117.184;2024-03-06T00:17:57;99259.18;;;29.75;26.68
47592;BME280;33317;33.356;-117.184;2024-03-06T00:20:25;99260.52;;;29.56;26.57
47592;BME280;33317;33.356;-117.184;2024-03-06T00:22:54;99261.70;;;29.78;26.63
47592;BME280;33317;33.356;-117.184;2024-03-06T00:25:22;99263.05;;;29.78;26.86
47592;BME280;33317;33.356;-117.184;2024-03-06T00:27:51;99261.43;;;29.76;26.83
47592;BME280;33317;33.356;-117.184;2024-03-06T00:30:19;99258.45;;;29.72;27.06
47592;BME280;33317;33.356;-117.184;2024-03-06T00:32:47;99252.30;;;29.45;27.14
47592;BME280;33317;33.356;-117.184;2024-03-06T00:35:16;99249.15;;;29.41;27.10
47592;BME280;33317;33.356;-117.184;2024-03-06T00:37:44;99248.53;;;29.38;27.49
47592;BME280;33317;33.356;-117.184;2024-03-06T00:40:13;99245.00;;;29.56;27.17
47592;BME280;33317;33.356;-117.184;2024-03-06T00:42:42;99238.07;;;29.50;27.53
47592;BME280;33317;33.356;-117.184;2024-03-06T00:45:11;99235.57;;;29.44;27.87
47592;BME280;33317;33.356;-117.184;2024-03-06T00:47:39;99234.98;;;29.67;27.70
47592;BME280;33317;33.356;-117.184;2024-03-06T00:50:07;99235.54;;;29.58;27.85
47592;BME280;33317;33.356;-117.184;2024-03-06T00:52:36;99235.04;;;29.54;27.81
47592;BME280;33317;33.356;-117.184;2024-03-06T00:55:05;99238.39;;;29.21;27.97
47592;BME280;33317;33.356;-117.184;2024-03-06T00:57:33;99240.04;;;29.17;27.90
47592;BME280;33317;33.356;-117.184;2024-03-06T01:00:01;99243.47;;;29.43;27.80
47592;BME280;33317;33.356;-117.184;2024-03-06T01:02:31;99245.61;;;29.14;27.78
47592;BME280;33317;33.356;-117.184;2024-03-06T01:04:59;99241.97;;;29.38;27.38
47592;BME280;33317;33.356;-117.184;2024-03-06T01:07:29;99244.75;;;29.36;27.69
47592;BME280;33317;33.356;-117.184;2024-03-06T01:09:57;99243.25;;;29.30;27.79
47592;BME280;33317;33.356;-117.184;2024-03-06T01:12:26;99249.93;;;29.22;27.79
47592;BME280;33317;33.356;-117.184;2024-03-06T01:14:55;99246.55;;;29.14;27.97
47592;BME280;33317;33.356;-117.184;2024-03-06T01:17:24;99243.84;;;29.08;28.03
47592;BME280;33317;33.356;-117.184;2024-03-06T01:19:53;99250.28;;;28.94;28.14
47592;BME280;33317;33.356;-117.184;2024-03-06T01:22:22;99250.60;;;29.04;28.15
47592;BME280;33317;33.356;-117.184;2024-03-06T01:24:50;99246.30;;;28.48;28.33
47592;BME280;33317;33.356;-117.184;2024-03-06T01:27:18;99249.31;;;28.78;28.27
47592;BME280;33317;33.356;-117.184;2024-03-06T01:29:47;99246.99;;;28.71;28.26
47592;BME280;33317;33.356;-117.184;2024-03-06T01:32:15;99241.16;;;28.86;28.32
47592;BME280;33317;33.356;-117.184;2024-03-06T01:34:44;99245.75;;;28.68;28.59
47592;BME280;33317;33.356;-117.184;2024-03-06T01:37:12;99251.21;;;28.62;28.42
47592;BME280;33317;33.356;-117.184;2024-03-06T01:39:41;99255.31;;;28.81;28.62
47592;BME280;33317;33.356;-117.184;2024-03-06T01:42:09;99255.30;;;28.25;28.79
47592;BME280;33317;33.356;-117.184;2024-03-06T01:44:37;99254.30;;;28.18;28.69
47592;BME280;33317;33.356;-117.184;2024-03-06T01:47:06;99260.62;;;28.32;28.78
47592;BME280;33317;33.356;-117.184;2024-03-06T01:49:34;99260.60;;;28.52;28.89
47592;BME280;33317;33.356;-117.184;2024-03-06T01:52:03;99259.54;;;28.43;28.96
47592;BME280;33317;33.356;-117.184;2024-03-06T01:54:32;99258.21;;;28.11;28.92
47592;BME280;33317;33.356;-117.184;2024-03-06T01:57:02;99251.94;;;28.06;29.13
47592;BME280;33317;33.356;-117.184;2024-03-06T01:59:31;99248.84;;;28.29;29.06
47592;BME280;33317;33.356;-117.184;2024-03-06T02:02:01;99249.56;;;28.22;29.11
47592;BME280;33317;33.356;-117.184;2024-03-06T02:04:31;99249.31;;;28.17;29.20
47592;BME280;33317;33.356;-117.184;2024-03-06T02:06:59;99242.89;;;28.11;29.41
47592;BME280;33317;33.356;-117.184;2024-03-06T02:09:28;99242.95;;;28.06;29.26
47592;BME280;33317;33.356;-117.184;2024-03-06T02:11:56;99249.17;;;27.98;29.39
47592;BME280;33317;33.356;-117.184;2024-03-06T02:14:24;99252.54;;;27.91;29.51
47592;BME280;33317;33.356;-117.184;2024-03-06T02:16:52;99251.93;;;27.85;29.66
47592;BME280;33317;33.356;-117.184;2024-03-06T02:19:21;99255.15;;;28.19;29.65
47592;BME280;33317;33.356;-117.184;2024-03-06T02:21:49;99255.48;;;27.69;29.61
47592;BME280;33317;33.356;-117.184;2024-03-06T02:24:18;99257.16;;;27.75;29.96
47592;BME280;33317;33.356;-117.184;2024-03-06T02:26:47;99259.47;;;27.50;29.76
47592;BME280;33317;33.356;-117.184;2024-03-06T02:29:16;99262.67;;;27.45;29.85
47592;BME280;33317;33.356;-117.184;2024-03-06T02:31:44;99264.52;;;27.26;30.18
47592;BME280;33317;33.356;-117.184;2024-03-06T02:34:13;99253.55;;;27.43;30.01
47592;BME280;33317;33.356;-117.184;2024-03-06T02:36:41;99254.69;;;27.09;30.11
47592;BME280;33317;33.356;-117.184;2024-03-06T02:39:10;99256.73;;;27.45;30.31
47592;BME280;33317;33.356;-117.184;2024-03-06T02:41:38;99258.08;;;27.37;30.30
47592;BME280;33317;33.356;-117.184;2024-03-06T02:44:07;99258.23;;;27.25;30.55
47592;BME280;33317;33.356;-117.184;2024-03-06T02:46:35;99251.20;;;27.13;30.51
47592;BME280;33317;33.356;-117.184;2024-03-06T02:49:03;99250.69;;;27.05;30.50
47592;BME280;33317;33.356;-117.184;2024-03-06T02:51:32;99248.95;;;26.94;30.72
47592;BME280;33317;33.356;-117.184;2024-03-06T02:54:00;99249.24;;;26.84;30.77
47592;BME280;33317;33.356;-117.184;2024-03-06T02:56:29;99251.52;;;26.63;31.22
47592;BME280;33317;33.356;-117.184;2024-03-06T02:58:58;99261.38;;;26.69;30.94
47592;BME280;33317;33.356;-117.184;2024-03-06T03:01:26;99262.68;;;26.54;31.02
47592;BME280;33317;33.356;-117.184;2024-03-06T03:03:54;99264.25;;;26.35;31.31
47592;BME280;33317;33.356;-117.184;2024-03-06T03:06:23;99268.22;;;26.63;31.38
47592;BME280;33317;33.356;-117.184;2024-03-06T03:08:51;99269.77;;;26.42;31.18
47592;BME280;33317;33.356;-117.184;2024-03-06T03:11:21;99269.61;;;26.62;31.28
47592;BME280;33317;33.356;-117.184;2024-03-06T03:13:50;99276.62;;;26.57;31.29
47592;BME280;33317;33.356;-117.184;2024-03-06T03:16:20;99270.03;;;26.22;31.39
47592;BME280;33317;33.356;-117.184;2024-03-06T03:18:48;99273.57;;;26.34;31.50
47592;BME280;33317;33.356;-117.184;2024-03-06T03:21:17;99277.65;;;26.52;31.63
47592;BME280;33317;33.356;-117.184;2024-03-06T03:23:45;99276.64;;;26.15;31.77
47592;BME280;33317;33.356;-117.184;2024-03-06T03:26:14;99272.82;;;25.91;32.19
47592;BME280;33317;33.356;-117.184;2024-03-06T03:28:42;99275.25;;;25.95;31.85
47592;BME280;33317;33.356;-117.184;2024-03-06T03:31:10;99281.97;;;25.91;31.92
47592;BME280;33317;33.356;-117.184;2024-03-06T03:33:40;99280.52;;;25.92;31.88
47592;BME280;33317;33.356;-117.184;2024-03-06T03:36:09;99278.07;;;25.82;32.25
47592;BME280;33317;33.356;-117.184;2024-03-06T03:38:38;99273.51;;;26.05;32.33
47592;BME280;33317;33.356;-117.184;2024-03-06T03:41:08;99276.48;;;25.98;32.37
47592;BME280;33317;33.356;-117.184;2024-03-06T03:43:37;99281.12;;;25.99;32.09
47592;BME280;33317;33.356;-117.184;2024-03-06T03:46:06;99279.88;;;26.01;31.77
47592;BME280;33317;33.356;-117.184;2024-03-06T03:48:34;99288.08;;;26.18;31.90
47592;BME280;33317;33.356;-117.184;2024-03-06T03:51:08;99287.32;;;25.99;31.89
47592;BME280;33317;33.356;-117.184;2024-03-06T03:53:36;99289.32;;;26.35;31.63
47592;BME280;33317;33.356;-117.184;2024-03-06T03:56:05;99285.83;;;26.02;32.23
47592;BME280;33317;33.356;-117.184;2024-03-06T03:58:33;99283.10;;;25.57;32.01
47592;BME280;33317;33.356;-117.184;2024-03-06T04:01:01;99284.43;;;25.85;32.08
47592;BME280;33317;33.356;-117.184;2024-03-06T04:03:29;99285.93;;;26.01;32.27
47592;BME280;33317;33.356;-117.184;2024-03-06T04:05:58;99289.62;;;25.99;32.01
47592;BME280;33317;33.356;-117.184;2024-03-06T04:08:26;99292.11;;;25.44;32.80
47592;BME280;33317;33.356;-117.184;2024-03-06T04:10:54;99293.84;;;25.78;32.66
47592;BME280;33317;33.356;-117.184;2024-03-06T04:13:23;99295.24;;;25.81;32.15
47592;BME280;33317;33.356;-117.184;2024-03-06T04:15:51;99293.60;;;25.76;32.17
47592;BME280;33317;33.356;-117.184;2024-03-06T04:18:19;99292.95;;;25.92;32.30
47592;BME280;33317;33.356;-117.184;2024-03-06T04:20:48;99286.54;;;25.51;32.20
47592;BME280;33317;33.356;-117.184;2024-03-06T04:23:16;99284.84;;;25.72;31.78
47592;BME280;33317;33.356;-117.184;2024-03-06T04:25:46;99281.39;;;26.07;31.52
47592;BME280;33317;33.356;-117.184;2024-03-06T04:28:14;99284.02;;;25.79;31.53
47592;BME280;33317;33.356;-117.184;2024-03-06T04:30:42;99286.50;;;25.89;31.78
47592;BME280;33317;33.356;-117.184;2024-03-06T04:33:11;99289.91;;;26.14;31.65
47592;BME280;33317;33.356;-117.184;2024-03-06T04:35:39;99290.80;;;26.14;31.63
47592;BME280;33317;33.356;-117.184;2024-03-06T04:38:09;99287.71;;;26.12;31.63
47592;BME280;33317;33.356;-117.184;2024-03-06T04:40:37;99288.89;;;25.87;31.74
47592;BME280;33317;33.356;-117.184;2024-03-06T04:43:06;99284.85;;;26.12;31.59
47592;BME280;33317;33.356;-117.184;2024-03-06T04:45:34;99293.25;;;26.01;31.70
47592;BME280;33317;33.356;-117.184;2024-03-06T04:48:03;99297.45;;;25.70;31.77
47592;BME280;33317;33.356;-117.184;2024-03-06T04:50:32;99295.95;;;25.46;32.04
47592;BME280;33317;33.356;-117.184;2024-03-06T04:53:00;99298.94;;;25.72;32.17
47592;BME280;33317;33.356;-117.184;2024-03-06T04:55:29;99303.00;;;25.81;31.95
47592;BME280;33317;33.356;-117.184;2024-03-06T04:57:57;99306.09;;;26.07;32.01
47592;BME280;33317;33.356;-117.184;2024-03-06T05:00:25;99307.85;;;25.36;32.21
47592;BME280;33317;33.356;-117.184;2024-03-06T05:02:55;99310.18;;;25.41;32.16
47592;BME280;33317;33.356;-117.184;2024-03-06T05:05:23;99310.80;;;25.52;32.36
47592;BME280;33317;33.356;-117.184;2024-03-06T05:07:51;99312.02;;;26.00;32.39
47592;BME280;33317;33.356;-117.184;2024-03-06T05:10:19;99307.40;;;25.44;32.22
47592;BME280;33317;33.356;-117.184;2024-03-06T05:12:48;99305.17;;;25.49;32.33
47592;BME280;33317;33.356;-117.184;2024-03-06T05:15:16;99305.01;;;25.21;32.58
47592;BME280;33317;33.356;-117.184;2024-03-06T05:17:46;99304.03;;;25.23;32.38
47592;BME280;33317;33.356;-117.184;2024-03-06T05:20:14;99305.05;;;24.73;33.23
47592;BME280;33317;33.356;-117.184;2024-03-06T05:22:42;99306.04;;;24.90;32.94
47592;BME280;33317;33.356;-117.184;2024-03-06T05:25:11;99306.36;;;24.79;33.12
47592;BME280;33317;33.356;-117.184;2024-03-06T05:27:39;99314.30;;;24.71;33.18
47592;BME280;33317;33.356;-117.184;2024-03-06T05:30:08;99318.63;;;24.97;32.75
47592;BME280;33317;33.356;-117.184;2024-03-06T05:32:37;99321.02;;;24.60;33.34
47592;BME280;33317;33.356;-117.184;2024-03-06T05:35:05;99330.87;;;24.65;33.21
47592;BME280;33317;33.356;-117.184;2024-03-06T05:37:34;99333.65;;;24.39;33.54
47592;BME280;33317;33.356;-117.184;2024-03-06T05:40:04;99332.91;;;25.02;33.01
47592;BME280;33317;33.356;-117.184;2024-03-06T05:42:32;99325.98;;;24.92;32.99
47592;BME280;33317;33.356;-117.184;2024-03-06T05:45:00;99326.93;;;24.94;33.36
47592;BME280;33317;33.356;-117.184;2024-03-06T05:47:29;99324.83;;;24.78;32.73
47592;BME280;33317;33.356;-117.184;2024-03-06T05:49:57;99325.35;;;24.81;32.88
47592;BME280;33317;33.356;-117.184;2024-03-06T05:52:26;99331.50;;;24.78;32.79
47592;BME280;33317;33.356;-117.184;2024-03-06T05:54:55;99333.69;;;24.56;33.33
47592;BME280;33317;33.356;-117.184;2024-03-06T05:57:23;99334.96;;;24.60;33.19
47592;BME280;33317;33.356;-117.184;2024-03-06T05:59:52;99332.22;;;24.77;33.32
47592;BME280;33317;33.356;-117.184;2024-03-06T06:02:20;99334.29;;;24.75;33.52
47592;BME280;33317;33.356;-117.184;2024-03-06T06:04:49;99333.26;;;24.10;34.18
47592;BME280;33317;33.356;-117.184;2024-03-06T06:07:18;99330.01;;;24.49;33.39
47592;BME280;33317;33.356;-117.184;2024-03-06T06:09:46;99327.20;;;24.75;33.01
47592;BME280;33317;33.356;-117.184;2024-03-06T06:12:15;99325.18;;;24.65;33.36
47592;BME280;33317;33.356;-117.184;2024-03-06T06:14:43;99326.89;;;24.66;33.41
47592;BME280;33317;33.356;-117.184;2024-03-06T06:17:13;99330.16;;;24.97;32.74
47592;BME280;33317;33.356;-117.184;2024-03-06T06:19:43;99328.14;;;25.11;32.63
47592;BME280;33317;33.356;-117.184;2024-03-06T06:22:12;99323.87;;;24.98;32.82
47592;BME280;33317;33.356;-117.184;2024-03-06T06:24:40;99327.08;;;24.96;32.64
47592;BME280;33317;33.356;-117.184;2024-03-06T06:27:08;99320.08;;;24.70;33.24
47592;BME280;33317;33.356;-117.184;2024-03-06T06:29:37;99317.91;;;24.75;32.96
47592;BME280;33317;33.356;-117.184;2024-03-06T06:32:05;99317.05;;;25.20;32.64
47592;BME280;33317;33.356;-117.184;2024-03-06T06:34:34;99311.65;;;25.19;32.23
47592;BME280;33317;33.356;-117.184;2024-03-06T06:37:03;99313.22;;;25.34;31.90
47592;BME280;33317;33.356;-117.184;2024-03-06T06:39:32;99316.24;;;25.29;32.02
47592;BME280;33317;33.356;-117.184;2024-03-06T06:42:00;99315.83;;;25.20;32.12
47592;BME280;33317;33.356;-117.184;2024-03-06T06:44:29;99314.13;;;24.92;32.41
47592;BME280;33317;33.356;-117.184;2024-03-06T06:46:57;99311.62;;;24.80;32.91
47592;BME280;33317;33.356;-117.184;2024-03-06T06:49:25;99313.43;;;24.94;32.60
47592;BME280;33317;33.356;-117.184;2024-03-06T06:51:54;99314.16;;;24.82;32.74
47592;BME280;33317;33.356;-117.184;2024-03-06T06:54:22;99318.23;;;24.59;33.14
47592;BME280;33317;33.356;-117.184;2024-03-06T06:56:50;99318.64;;;24.64;33.37
47592;BME280;33317;33.356;-117.184;2024-03-06T06:59:19;99318.61;;;24.75;33.22
47592;BME280;33317;33.356;-117.184;2024-03-06T07:01:47;99322.57;;;24.65;33.12
47592;BME280;33317;33.356;-117.184;2024-03-06T07:04:15;99327.74;;;24.04;33.37
47592;BME280;33317;33.356;-117.184;2024-03-06T07:06:44;99322.85;;;24.29;33.12
47592;BME280;33317;33.356;-117.184;2024-03-06T07:09:12;99319.21;;;24.15;33.79
47592;BME280;33317;33.356;-117.184;2024-03-06T07:11:41;99311.84;;;23.69;34.07
47592;BME280;33317;33.356;-117.184;2024-03-06T07:14:09;99312.16;;;23.90;34.16
47592;BME280;33317;33.356;-117.184;2024-03-06T07:16:42;99303.53;;;23.79;33.88
47592;BME280;33317;33.356;-117.184;2024-03-06T07:19:11;99302.94;;;23.94;33.95
47592;BME280;33317;33.356;-117.184;2024-03-06T07:21:40;99307.07;;;23.39;34.77
47592;BME280;33317;33.356;-117.184;2024-03-06T07:24:08;99304.83;;;23.62;34.37
47592;BME280;33317;33.356;-117.184;2024-03-06T07:26:36;99307.71;;;23.18;35.03
47592;BME280;33317;33.356;-117.184;2024-03-06T07:29:05;99307.96;;;22.87;35.21
47592;BME280;33317;33.356;-117.184;2024-03-06T07:31:33;99307.80;;;22.84;35.57
47592;BME280;33317;33.356;-117.184;2024-03-06T07:34:02;99298.14;;;23.37;35.50
47592;BME280;33317;33.356;-117.184;2024-03-06T07:36:31;99292.30;;;22.91;35.38
47592;BME280;33317;33.356;-117.184;2024-03-06T07:38:59;99298.65;;;22.83;35.67
47592;BME280;33317;33.356;-117.184;2024-03-06T07:41:28;99296.13;;;22.96;35.71
47592;BME280;33317;33.356;-117.184;2024-03-06T07:43:56;99299.71;;;22.63;35.57
47592;BME280;33317;33.356;-117.184;2024-03-06T07:46:24;99296.72;;;22.65;35.90
47592;BME280;33317;33.356;-117.184;2024-03-06T07:48:53;99292.45;;;23.08;35.26
47592;BME280;33317;33.356;-117.184;2024-03-06T07:51:21;99297.24;;;22.80;35.32
47592;BME280;33317;33.356;-117.184;2024-03-06T07:53:50;99299.03;;;22.84;35.52
47592;BME280;33317;33.356;-117.184;2024-03-06T07:56:18;99299.54;;;22.41;36.19
47592;BME280;33317;33.356;-117.184;2024-03-06T07:58:47;99298.47;;;22.35;35.93
47592;BME280;33317;33.356;-117.184;2024-03-06T08:01:15;99295.33;;;22.44;35.61
47592;BME280;33317;33.356;-117.184;2024-03-06T08:03:43;99291.22;;;22.29;35.55
47592;BME280;33317;33.356;-117.184;2024-03-06T08:06:11;99291.71;;;22.51;35.91
47592;BME280;33317;33.356;-117.184;2024-03-06T08:08:41;99293.12;;;22.61;35.63
47592;BME280;33317;33.356;-117.184;2024-03-06T08:11:10;99296.45;;;22.43;35.86
47592;BME280;33317;33.356;-117.184;2024-03-06T08:13:39;99291.61;;;22.60;35.53
47592;BME280;33317;33.356;-117.184;2024-03-06T08:16:08;99292.79;;;22.93;35.57
47592;BME280;33317;33.356;-117.184;2024-03-06T08:18:37;99287.20;;;22.60;35.54
47592;BME280;33317;33.356;-117.184;2024-03-06T08:21:05;99282.81;;;22.48;35.78
47592;BME280;33317;33.356;-117.184;2024-03-06T08:23:34;99278.29;;;22.56;35.05
47592;BME280;33317;33.356;-117.184;2024-03-06T08:26:02;99277.20;;;22.75;35.09
47592;BME280;33317;33.356;-117.184;2024-03-06T08:28:30;99278.67;;;22.32;35.82
47592;BME280;33317;33.356;-117.184;2024-03-06T08:31:00;99281.01;;;22.60;35.96
47592;BME280;33317;33.356;-117.184;2024-03-06T08:33:28;99271.75;;;22.75;35.50
47592;BME280;33317;33.356;-117.184;2024-03-06T08:35:56;99267.90;;;22.80;34.95
47592;BME280;33317;33.356;-117.184;2024-03-06T08:38:25;99267.65;;;22.29;35.55
47592;BME280;33317;33.356;-117.184;2024-03-06T08:40:53;99264.64;;;22.48;35.44
47592;BME280;33317;33.356;-117.184;2024-03-06T08:43:22;99259.69;;;22.57;35.32
47592;BME280;33317;33.356;-117.184;2024-03-06T08:45:50;99264.95;;;22.32;35.63
47592;BME280;33317;33.356;-117.184;2024-03-06T08:48:19;99263.75;;;22.62;35.76
47592;BME280;33317;33.356;-117.184;2024-03-06T08:50:47;99265.39;;;22.16;35.87
47592;BME280;33317;33.356;-117.184;2024-03-06T08:53:17;99259.70;;;22.37;36.13
47592;BME280;33317;33.356;-117.184;2024-03-06T08:55:45;99267.75;;;22.10;35.49
47592;BME280;33317;33.356;-117.184;2024-03-06T08:58:13;99274.71;;;22.29;36.13
47592;BME280;33317;33.356;-117.184;2024-03-06T09:00:42;99272.09;;;21.92;36.28
47592;BME280;33317;33.356;-117.184;2024-03-06T09:03:10;99269.55;;;22.27;35.94
47592;BME280;33317;33.356;-117.184;2024-03-06T09:05:38;99275.23;;;21.78;36.23
47592;BME280;33317;33.356;-117.184;2024-03-06T09:08:07;99272.22;;;21.82;36.26
47592;BME280;33317;33.356;-117.184;2024-03-06T09:10:35;99269.10;;;22.05;36.15
47592;BME280;33317;33.356;-117.184;2024-03-06T09:13:04;99262.98;;;21.95;36.53
47592;BME280;33317;33.356;-117.184;2024-03-06T09:15:32;99260.35;;;22.24;35.93
47592;BME280;33317;33.356;-117.184;2024-03-06T09:18:00;99261.16;;;22.17;36.16
47592;BME280;33317;33.356;-117.184;2024-03-06T09:20:29;99254.61;;;22.33;35.71
47592;BME280;33317;33.356;-117.184;2024-03-06T09:22:57;99253.23;;;22.00;35.98
47592;BME280;33317;33.356;-117.184;2024-03-06T09:25:26;99252.21;;;22.18;35.75
47592;BME280;33317;33.356;-117.184;2024-03-06T09:27:54;99258.33;;;22.73;35.23
47592;BME280;33317;33.356;-117.184;2024-03-06T09:30:23;99263.52;;;22.68;35.40
47592;BME280;33317;33.356;-117.184;2024-03-06T09:32:51;99262.75;;;22.69;35.15
47592;BME280;33317;33.356;-117.184;2024-03-06T09:35:19;99245.20;;;22.52;35.50
47592;BME280;33317;33.356;-117.184;2024-03-06T09:37:48;99238.87;;;22.65;34.97
47592;BME280;33317;33.356;-117.184;2024-03-06T09:40:22;99241.80;;;22.56;35.09
47592;BME280;33317;33.356;-117.184;2024-03-06T09:42:50;99246.34;;;22.91;34.46
47592;BME280;33317;33.356;-117.184;2024-03-06T09:45:19;99238.47;;;23.14;34.46
47592;BME280;33317;33.356;-117.184;2024-03-06T09:47:48;99229.58;;;23.17;34.25
47592;BME280;33317;33.356;-117.184;2024-03-06T09:50:17;99222.56;;;23.39;33.84
47592;BME280;33317;33.356;-117.184;2024-03-06T09:52:46;99224.40;;;23.38;33.82
47592;BME280;33317;33.356;-117.184;2024-03-06T09:55:17;99222.86;;;23.07;34.20
47592;BME280;33317;33.356;-117.184;2024-03-06T09:57:45;99224.73;;;23.40;33.82
47592;BME280;33317;33.356;-117.184;2024-03-06T10:00:13;99231.71;;;23.53;33.67
47592;BME280;33317;33.356;-117.184;2024-03-06T10:02:48;99233.95;;;23.14;33.85
47592;BME280;33317;33.356;-117.184;2024-03-06T10:05:23;99231.46;;;23.14;33.81
47592;BME280;33317;33.356;-117.184;2024-03-06T10:07:52;99227.10;;;23.10;34.11
47592;BME280;33317;33.356;-117.184;2024-03-06T10:10:20;99215.62;;;23.11;34.06
47592;BME280;33317;33.356;-117.184;2024-03-06T10:12:49;99211.30;;;23.04;33.86
47592;BME280;33317;33.356;-117.184;2024-03-06T10:15:18;99211.82;;;23.13;34.03
47592;BME280;33317;33.356;-117.184;2024-03-06T10:17:47;99212.74;;;23.20;33.63
47592;BME280;33317;33.356;-117.184;2024-03-06T10:20:23;99208.82;;;23.47;33.55
47592;BME280;33317;33.356;-117.184;2024-03-06T10:22:53;99204.25;;;23.44;33.68
47592;BME280;33317;33.356;-117.184;2024-03-06T10:25:22;99198.81;;;22.78;34.22
47592;BME280;33317;33.356;-117.184;2024-03-06T10:28:10;99195.27;;;23.22;33.90
47592;BME280;33317;33.356;-117.184;2024-03-06T10:30:40;99193.47;;;23.08;34.04
47592;BME280;33317;33.356;-117.184;2024-03-06T10:33:09;99194.20;;;22.85;34.08
47592;BME280;33317;33.356;-117.184;2024-03-06T10:35:39;99193.34;;;23.27;33.74
47592;BME280;33317;33.356;-117.184;2024-03-06T10:38:09;99189.30;;;23.30;33.69
47592;BME280;33317;33.356;-117.184;2024-03-06T10:40:39;99181.83;;;23.43;33.58
47592;BME280;33317;33.356;-117.184;2024-03-06T10:43:08;99169.44;;;23.18;33.87
47592;BME280;33317;33.356;-117.184;2024-03-06T10:45:44;99163.92;;;23.04;33.65
47592;BME280;33317;33.356;-117.184;2024-03-06T10:48:16;99155.58;;;23.11;34.29
47592;BME280;33317;33.356;-117.184;2024-03-06T10:50:45;99154.90;;;23.23;33.68
47592;BME280;33317;33.356;-117.184;2024-03-06T10:53:17;99154.66;;;23.13;33.84
47592;BME280;33317;33.356;-117.184;2024-03-06T10:55:45;99161.99;;;22.93;34.05
47592;BME280;33317;33.356;-117.184;2024-03-06T10:58:14;99160.72;;;22.80;34.18
47592;BME280;33317;33.356;-117.184;2024-03-06T11:00:46;99158.05;;;23.07;34.20
47592;BME280;33317;33.356;-117.184;2024-03-06T11:03:15;99158.01;;;22.69;34.42
47592;BME280;33317;33.356;-117.184;2024-03-06T11:05:45;99156.88;;;22.67;34.40
47592;BME280;33317;33.356;-117.184;2024-03-06T11:08:15;99157.52;;;23.22;33.97
47592;BME280;33317;33.356;-117.184;2024-03-06T11:10:44;99157.48;;;23.55;33.48
47592;BME280;33317;33.356;-117.184;2024-03-06T11:13:23;99159.17;;;23.26;33.46
47592;BME280;33317;33.356;-117.184;2024-03-06T11:15:52;99150.54;;;23.35;33.00
47592;BME280;33317;33.356;-117.184;2024-03-06T11:19:05;99151.31;;;23.13;33.71
47592;BME280;33317;33.356;-117.184;2024-03-06T11:21:33;99152.99;;;23.13;33.69
47592;BME280;33317;33.356;-117.184;2024-03-06T11:24:19;99157.03;;;23.56;33.41
47592;BME280;33317;33.356;-117.184;2024-03-06T11:26:49;99145.84;;;23.46;33.50
47592;BME280;33317;33.356;-117.184;2024-03-06T11:29:19;99140.37;;;22.80;33.67
47592;BME280;33317;33.356;-117.184;2024-03-06T11:32:19;99137.01;;;23.07;34.00
47592;BME280;33317;33.356;-117.184;2024-03-06T11:34:49;99139.85;;;22.87;34.26
47592;BME280;33317;33.356;-117.184;2024-03-06T11:37:21;99140.02;;;22.77;34.32
47592;BME280;33317;33.356;-117.184;2024-03-06T11:39:49;99135.39;;;22.96;34.04
47592;BME280;33317;33.356;-117.184;2024-03-06T11:42:17;99133.34;;;22.58;34.59
47592;BME280;33317;33.356;-117.184;2024-03-06T11:44:55;99132.51;;;22.41;34.72
47592;BME280;33317;33.356;-117.184;2024-03-06T11:47:23;99135.97;;;21.80;35.28
47592;BME280;33317;33.356;-117.184;2024-03-06T11:49:52;99135.70;;;22.18;34.63
47592;BME280;33317;33.356;-117.184;2024-03-06T11:52:21;99135.65;;;22.19;35.06
47592;BME280;33317;33.356;-117.184;2024-03-06T11:54:49;99134.96;;;21.76;35.59
47592;BME280;33317;33.356;-117.184;2024-03-06T11:57:20;99132.64;;;21.54;35.82
47592;BME280;33317;33.356;-117.184;2024-03-06T11:59:48;99133.78;;;21.33;36.20
47592;BME280;33317;33.356;-117.184;2024-03-06T12:02:17;99134.10;;;21.26;36.19
47592;BME280;33317;33.356;-117.184;2024-03-06T12:04:45;99130.80;;;21.77;36.14
47592;BME280;33317;33.356;-117.184;2024-03-06T12:07:13;99128.92;;;21.33;36.42
47592;BME280;33317;33.356;-117.184;2024-03-06T12:09:42;99122.55;;;20.99;36.57
47592;BME280;33317;33.356;-117.184;2024-03-06T12:12:10;99119.46;;;20.88;36.41
47592;BME280;33317;33.356;-117.184;2024-03-06T12:14:38;99115.06;;;20.77;36.80
47592;BME280;33317;33.356;-117.184;2024-03-06T12:17:10;99117.87;;;21.12;36.18
47592;BME280;33317;33.356;-117.184;2024-03-06T12:19:39;99116.18;;;20.74;37.11
47592;BME280;33317;33.356;-117.184;2024-03-06T12:22:11;99118.04;;;20.65;36.99
47592;BME280;33317;33.356;-117.184;2024-03-06T12:24:40;99119.21;;;20.68;37.16
47592;BME280;33317;33.356;-117.184;2024-03-06T12:27:08;99120.66;;;20.91;37.15
47592;BME280;33317;33.356;-117.184;2024-03-06T12:29:37;99124.67;;;20.32;37.67
47592;BME280;33317;33.356;-117.184;2024-03-06T12:32:15;99121.32;;;20.74;37.32
47592;BME280;33317;33.356;-117.184;2024-03-06T12:34:44;99129.70;;;20.45;37.43
47592;BME280;33317;33.356;-117.184;2024-03-06T12:37:12;99134.76;;;20.53;37.38
47592;BME280;33317;33.356;-117.184;2024-03-06T12:39:40;99136.28;;;21.00;36.99